createdAt,value
2017-10-19T00:01:33.253Z,9.50
2017-10-19T00:04:00.688Z,9.50
2017-10-19T00:06:28.904Z,9.50
2017-10-19T00:08:56.356Z,9.50
2017-10-19T00:11:23.782Z,9.60
2017-10-19T00:13:51.218Z,9.50
2017-10-19T00:16:19.431Z,9.60
2017-10-19T00:18:46.886Z,9.50
2017-10-19T00:21:14.343Z,9.50
2017-10-19T00:23:41.804Z,9.50
2017-10-19T00:26:09.256Z,9.50
2017-10-19T00:28:36.710Z,9.50
2017-10-19T00:31:04.154Z,9.40
2017-10-19T00:33:31.586Z,9.40
2017-10-19T00:35:59.800Z,9.40
2017-10-19T00:38:27.255Z,9.30
2017-10-19T00:40:54.686Z,9.30
2017-10-19T00:43:22.898Z,9.30
2017-10-19T00:45:50.340Z,9.30
2017-10-19T00:48:17.797Z,9.20
2017-10-19T00:50:45.232Z,9.20
2017-10-19T00:53:12.670Z,9.10
2017-10-19T00:55:40.880Z,9.20
2017-10-19T00:58:08.318Z,9.10
2017-10-19T01:00:35.756Z,9.20
2017-10-19T01:03:03.963Z,9.10
2017-10-19T01:05:31.403Z,9.10
2017-10-19T01:07:58.843Z,9.10
2017-10-19T01:10:27.055Z,9.10
2017-10-19T01:12:54.483Z,9.00
2017-10-19T01:15:22.699Z,8.90
2017-10-19T01:17:50.136Z,8.90
2017-10-19T01:20:17.591Z,9.00
2017-10-19T01:22:45.019Z,9.00
2017-10-19T01:25:13.232Z,9.10
2017-10-19T01:27:40.677Z,9.10
2017-10-19T01:30:08.119Z,9.10
2017-10-19T01:32:35.552Z,9.10
2017-10-19T01:35:03.763Z,9.10
2017-10-19T01:37:31.190Z,9.10
2017-10-19T01:39:59.399Z,8.90
2017-10-19T01:42:26.830Z,8.90
2017-10-19T01:44:54.280Z,8.90
2017-10-19T01:47:22.475Z,8.80
2017-10-19T01:49:59.730Z,8.80
2017-10-19T01:52:27.935Z,8.90
2017-10-19T01:54:55.396Z,8.90
2017-10-19T01:57:22.819Z,8.80
2017-10-19T01:59:51.024Z,8.90
2017-10-19T02:02:18.464Z,8.90
2017-10-19T02:04:45.907Z,8.80
2017-10-19T02:07:14.105Z,8.70
2017-10-19T02:09:41.542Z,8.60
2017-10-19T02:12:08.982Z,8.70
2017-10-19T02:14:37.192Z,8.60
2017-10-19T02:17:04.648Z,8.60
2017-10-19T02:19:32.088Z,8.60
2017-10-19T02:21:59.522Z,8.60
2017-10-19T02:24:27.744Z,8.50
2017-10-19T02:26:55.194Z,8.50
2017-10-19T02:29:22.627Z,8.50
2017-10-19T02:31:50.074Z,8.50
2017-10-19T02:34:18.279Z,8.40
2017-10-19T02:36:45.733Z,8.40
2017-10-19T02:39:13.166Z,8.40
2017-10-19T02:41:40.603Z,8.40
2017-10-19T02:44:08.812Z,8.40
2017-10-19T02:46:36.247Z,8.40
2017-10-19T02:49:04.456Z,8.40
2017-10-19T02:51:31.896Z,8.40
2017-10-19T02:53:59.329Z,8.40
2017-10-19T02:56:27.531Z,8.30
2017-10-19T02:58:54.967Z,8.30
2017-10-19T03:01:22.412Z,8.30
2017-10-19T03:03:50.619Z,8.30
2017-10-19T03:06:18.072Z,8.30
2017-10-19T03:08:45.508Z,8.30
2017-10-19T03:11:12.955Z,8.30
2017-10-19T03:13:41.159Z,8.30
2017-10-19T03:16:08.598Z,8.30
2017-10-19T03:18:36.028Z,8.20
2017-10-19T03:21:04.228Z,8.20
2017-10-19T03:23:31.671Z,8.10
2017-10-19T03:25:59.871Z,8.10
2017-10-19T03:28:27.310Z,8.10
2017-10-19T03:30:54.743Z,8.10
2017-10-19T03:33:22.182Z,8.10
2017-10-19T03:35:49.632Z,8.10
2017-10-19T03:38:17.075Z,8.00
2017-10-19T03:40:44.512Z,8.00
2017-10-19T03:43:11.966Z,8.00
2017-10-19T03:45:39.395Z,7.90
2017-10-19T03:48:07.603Z,7.80
2017-10-19T03:50:35.049Z,7.80
2017-10-19T03:53:02.487Z,7.80
2017-10-19T03:55:29.924Z,7.80
2017-10-19T03:57:58.133Z,7.90
2017-10-19T04:00:25.579Z,7.90
2017-10-19T04:02:53.015Z,8.00
2017-10-19T04:05:21.217Z,7.90
2017-10-19T04:07:48.663Z,7.90
2017-10-19T04:10:16.908Z,8.00
2017-10-19T04:12:44.355Z,8.00
2017-10-19T04:15:11.783Z,7.90
2017-10-19T04:17:39.228Z,8.00
2017-10-19T04:20:06.688Z,8.10
2017-10-19T04:22:34.146Z,8.10
2017-10-19T04:25:01.588Z,8.00
2017-10-19T04:27:29.028Z,7.90
2017-10-19T04:29:56.468Z,7.90
2017-10-19T04:32:24.671Z,7.90
2017-10-19T04:34:52.127Z,7.90
2017-10-19T04:37:19.563Z,7.90
2017-10-19T04:39:47.007Z,7.90
2017-10-19T04:42:15.215Z,7.70
2017-10-19T04:44:42.668Z,7.70
2017-10-19T04:47:10.183Z,7.80
2017-10-19T04:49:37.903Z,7.80
2017-10-19T04:52:05.347Z,7.80
2017-10-19T04:54:32.870Z,7.60
2017-10-19T04:57:01.619Z,7.70
2017-10-19T04:59:29.068Z,7.70
2017-10-19T05:01:56.516Z,7.80
2017-10-19T05:04:23.963Z,7.70
2017-10-19T05:06:51.407Z,7.70
2017-10-19T05:09:18.856Z,7.60
2017-10-19T05:11:46.290Z,7.60
2017-10-19T05:14:14.499Z,7.60
2017-10-19T05:16:41.936Z,7.60
2017-10-19T05:19:09.395Z,7.60
2017-10-19T05:21:36.827Z,7.60
2017-10-19T05:24:05.039Z,7.70
2017-10-19T05:26:32.483Z,7.70
2017-10-19T05:28:59.925Z,7.70
2017-10-19T05:31:28.127Z,7.60
2017-10-19T05:33:55.563Z,7.60
2017-10-19T05:36:23.008Z,7.60
2017-10-19T05:38:51.211Z,7.50
2017-10-19T05:41:18.667Z,7.50
2017-10-19T05:43:46.108Z,7.60
2017-10-19T05:46:13.573Z,7.60
2017-10-19T05:48:41.014Z,7.60
2017-10-19T05:51:09.241Z,7.80
2017-10-19T05:53:36.679Z,7.80
2017-10-19T05:56:04.132Z,7.90
2017-10-19T05:58:31.578Z,7.80
2017-10-19T06:00:59.027Z,7.80
2017-10-19T06:03:26.455Z,7.80
2017-10-19T06:05:54.676Z,7.90
2017-10-19T06:08:22.119Z,7.90
2017-10-19T06:10:49.558Z,8.00
2017-10-19T06:13:16.992Z,8.00
2017-10-19T06:15:45.207Z,8.10
2017-10-19T06:18:12.642Z,8.10
2017-10-19T06:20:40.084Z,8.20
2017-10-19T06:23:08.284Z,8.40
2017-10-19T06:25:35.719Z,8.40
2017-10-19T06:28:03.163Z,8.40
2017-10-19T06:30:31.374Z,8.40
2017-10-19T06:32:58.815Z,8.40
2017-10-19T06:35:26.259Z,8.50
2017-10-19T06:37:54.483Z,8.60
2017-10-19T06:40:21.928Z,8.60
2017-10-19T06:42:49.379Z,8.60
2017-10-19T06:45:16.814Z,8.70
2017-10-19T06:47:44.259Z,8.70
2017-10-19T06:50:12.471Z,8.70
2017-10-19T06:52:39.915Z,8.70
2017-10-19T06:55:07.347Z,8.80
2017-10-19T06:57:34.795Z,8.90
2017-10-19T07:00:03.011Z,9.00
2017-10-19T07:02:30.455Z,9.00
2017-10-19T07:04:57.891Z,9.00
2017-10-19T07:07:25.340Z,9.10
2017-10-19T07:09:53.551Z,9.30
2017-10-19T07:12:20.988Z,9.30
2017-10-19T07:14:48.428Z,9.50
2017-10-19T07:17:16.640Z,9.80
2017-10-19T07:19:44.082Z,9.80
2017-10-19T07:22:11.537Z,10.10
2017-10-19T07:24:38.972Z,10.30
2017-10-19T07:27:06.434Z,10.60
2017-10-19T07:29:34.635Z,11.60
2017-10-19T07:32:02.112Z,11.60
2017-10-19T07:34:29.567Z,12.00
2017-10-19T07:36:57.034Z,12.20
2017-10-19T07:39:24.482Z,12.40
2017-10-19T07:41:51.947Z,12.00
2017-10-19T07:44:19.398Z,12.40
2017-10-19T07:46:46.852Z,12.40
2017-10-19T07:49:14.301Z,12.40
2017-10-19T07:51:41.739Z,12.50
2017-10-19T07:54:09.199Z,12.70
2017-10-19T07:56:36.642Z,12.90
2017-10-19T07:59:04.096Z,12.80
2017-10-19T08:01:31.547Z,12.70
2017-10-19T08:03:58.995Z,12.90
2017-10-19T08:06:26.443Z,13.20
2017-10-19T08:08:53.896Z,13.20
2017-10-19T08:11:22.103Z,13.60
2017-10-19T08:13:49.551Z,13.60
2017-10-19T08:16:17.002Z,13.70
2017-10-19T08:18:44.464Z,13.70
2017-10-19T08:21:11.924Z,13.60
2017-10-19T08:23:39.381Z,13.70
2017-10-19T08:26:06.836Z,13.40
2017-10-19T08:28:34.294Z,13.90
2017-10-19T08:31:01.755Z,14.80
2017-10-19T08:33:29.188Z,15.70
2017-10-19T08:35:56.643Z,16.30
2017-10-19T08:38:24.091Z,16.80
2017-10-19T08:40:52.305Z,18.00
2017-10-19T08:43:19.759Z,17.90
2017-10-19T08:45:47.215Z,18.10
2017-10-19T08:48:14.660Z,17.60
2017-10-19T08:50:42.111Z,15.70
2017-10-19T08:53:09.569Z,15.30
2017-10-19T08:55:37.024Z,15.30
2017-10-19T08:58:04.466Z,15.80
2017-10-19T09:00:31.928Z,15.90
2017-10-19T09:02:59.372Z,16.10
2017-10-19T09:05:26.823Z,15.40
2017-10-19T09:07:55.040Z,15.60
2017-10-19T09:10:22.501Z,15.60
2017-10-19T09:12:49.948Z,15.80
2017-10-19T09:15:17.399Z,16.00
2017-10-19T09:17:44.848Z,15.90
2017-10-19T09:20:12.303Z,16.30
2017-10-19T09:22:39.766Z,16.50
2017-10-19T09:25:07.225Z,16.70
2017-10-19T09:27:34.674Z,16.40
2017-10-19T09:30:02.112Z,16.10
2017-10-19T09:32:29.560Z,16.40
2017-10-19T09:34:57.004Z,16.20
2017-10-19T09:37:25.233Z,16.40
2017-10-19T09:39:52.700Z,16.40
2017-10-19T09:42:20.163Z,16.80
2017-10-19T09:44:47.631Z,17.10
2017-10-19T09:47:15.080Z,17.40
2017-10-19T09:49:42.541Z,17.50
2017-10-19T09:52:10.000Z,17.60
2017-10-19T09:54:37.452Z,18.00
2017-10-19T09:57:04.912Z,19.30
2017-10-19T09:59:32.368Z,19.70
2017-10-19T10:01:59.848Z,19.40
2017-10-19T10:04:28.069Z,19.80
2017-10-19T10:06:55.540Z,19.80
2017-10-19T10:09:22.991Z,20.50
2017-10-19T10:11:50.455Z,21.20
2017-10-19T10:14:17.924Z,21.60
2017-10-19T10:16:45.383Z,22.10
2017-10-19T10:19:12.834Z,22.60
2017-10-19T10:21:40.292Z,23.00
2017-10-19T10:24:07.747Z,22.90
2017-10-19T10:26:35.201Z,23.40
2017-10-19T10:29:02.663Z,23.90
2017-10-19T10:31:30.116Z,24.20
2017-10-19T10:33:57.589Z,23.60
2017-10-19T10:36:25.815Z,22.80
2017-10-19T10:38:53.288Z,22.80
2017-10-19T10:41:20.748Z,22.50
2017-10-19T10:43:48.214Z,21.90
2017-10-19T10:46:15.679Z,21.70
2017-10-19T10:48:43.139Z,21.70
2017-10-19T10:51:11.367Z,21.80
2017-10-19T10:53:38.842Z,21.80
2017-10-19T10:56:06.320Z,21.70
2017-10-19T10:58:33.782Z,21.50
2017-10-19T11:01:02.003Z,21.30
2017-10-19T11:03:29.471Z,21.30
2017-10-19T11:05:56.932Z,21.50
2017-10-19T11:08:24.391Z,21.80
2017-10-19T11:10:51.857Z,21.30
2017-10-19T11:13:19.325Z,21.70
2017-10-19T11:15:46.779Z,22.00
2017-10-19T11:18:14.232Z,22.10
2017-10-19T11:20:41.771Z,21.10
2017-10-19T11:23:09.226Z,21.00
2017-10-19T11:25:36.689Z,21.00
2017-10-19T11:28:04.157Z,21.00
2017-10-19T11:30:31.611Z,22.20
2017-10-19T11:32:59.072Z,21.70
2017-10-19T11:35:26.539Z,23.00
2017-10-19T11:37:53.983Z,23.80
2017-10-19T11:40:21.440Z,24.00
2017-10-19T11:42:48.980Z,23.10
2017-10-19T11:45:16.436Z,21.60
2017-10-19T11:47:43.892Z,22.70
2017-10-19T11:50:11.356Z,24.00
2017-10-19T11:52:38.824Z,23.00
2017-10-19T11:55:06.297Z,22.50
2017-10-19T11:57:33.760Z,23.30
2017-10-19T12:00:01.219Z,24.40
2017-10-19T12:02:28.676Z,24.00
2017-10-19T12:04:56.900Z,21.90
2017-10-19T12:07:24.347Z,21.90
2017-10-19T12:09:51.824Z,22.10
2017-10-19T12:12:19.271Z,22.10
2017-10-19T12:14:46.724Z,22.20
2017-10-19T12:17:14.193Z,22.70
2017-10-19T12:19:41.643Z,23.90
2017-10-19T12:22:09.109Z,24.60
2017-10-19T12:24:36.579Z,25.30
2017-10-19T12:27:04.047Z,23.70
2017-10-19T12:29:31.493Z,22.60
2017-10-19T12:31:58.951Z,23.80
2017-10-19T12:34:26.422Z,25.10
2017-10-19T12:36:54.651Z,26.40
2017-10-19T12:39:22.091Z,26.40
2017-10-19T12:41:49.547Z,26.30
2017-10-19T12:44:16.995Z,26.80
2017-10-19T12:46:44.456Z,27.00
2017-10-19T12:49:11.895Z,27.30
2017-10-19T12:51:39.352Z,27.60
2017-10-19T12:54:06.795Z,27.70
2017-10-19T12:56:35.016Z,26.50
2017-10-19T12:59:02.462Z,26.50
2017-10-19T13:01:29.915Z,25.70
2017-10-19T13:03:57.373Z,26.40
2017-10-19T13:06:24.825Z,26.10
2017-10-19T13:08:52.267Z,26.50
2017-10-19T13:11:19.730Z,26.60
2017-10-19T13:13:47.176Z,26.50
2017-10-19T13:16:14.623Z,26.60
2017-10-19T13:18:42.078Z,26.70
2017-10-19T13:21:10.308Z,25.80
2017-10-19T13:23:37.751Z,25.70
2017-10-19T13:26:05.198Z,24.40
2017-10-19T13:28:33.468Z,25.20
2017-10-19T13:31:00.920Z,25.80
2017-10-19T13:33:28.383Z,25.40
2017-10-19T13:35:55.836Z,25.40
2017-10-19T13:38:23.296Z,25.70
2017-10-19T13:40:50.748Z,26.10
2017-10-19T13:43:18.206Z,26.30
2017-10-19T13:45:45.661Z,24.40
2017-10-19T13:48:13.120Z,24.90
2017-10-19T13:50:40.575Z,25.40
2017-10-19T13:53:08.042Z,25.80
2017-10-19T13:55:35.489Z,24.30
2017-10-19T13:58:02.960Z,23.30
2017-10-19T14:00:30.413Z,23.60
2017-10-19T14:02:57.872Z,24.00
2017-10-19T14:05:25.313Z,24.00
2017-10-19T14:07:52.788Z,23.50
2017-10-19T14:10:20.249Z,23.10
2017-10-19T14:12:47.699Z,23.20
2017-10-19T14:15:15.168Z,23.30
2017-10-19T14:17:42.628Z,23.50
2017-10-19T14:20:10.099Z,23.80
2017-10-19T14:22:37.551Z,24.00
2017-10-19T14:25:05.002Z,24.20
2017-10-19T14:27:32.464Z,24.30
2017-10-19T14:29:59.949Z,24.30
2017-10-19T14:32:28.172Z,23.70
2017-10-19T14:34:55.627Z,23.70
2017-10-19T14:37:23.087Z,23.70
2017-10-19T14:39:50.587Z,23.60
2017-10-19T14:42:18.829Z,23.40
2017-10-19T14:44:46.287Z,23.30
2017-10-19T14:47:13.755Z,23.30
2017-10-19T14:49:41.237Z,23.30
2017-10-19T14:52:09.476Z,23.20
2017-10-19T14:54:36.927Z,23.20
2017-10-19T14:57:04.383Z,23.00
2017-10-19T14:59:31.842Z,23.00
2017-10-19T15:01:59.302Z,23.00
2017-10-19T15:04:26.755Z,22.40
2017-10-19T15:06:54.208Z,22.30
2017-10-19T15:09:21.667Z,22.00
2017-10-19T15:11:49.123Z,21.50
2017-10-19T15:14:16.575Z,21.20
2017-10-19T15:16:44.035Z,21.10
2017-10-19T15:19:11.495Z,21.20
2017-10-19T15:21:38.943Z,21.30
2017-10-19T15:24:06.411Z,21.30
2017-10-19T15:26:33.878Z,20.90
2017-10-19T15:29:02.107Z,20.10
2017-10-19T15:31:29.580Z,20.00
2017-10-19T15:33:57.052Z,19.80
2017-10-19T15:36:24.527Z,19.90
2017-10-19T15:38:52.759Z,19.70
2017-10-19T15:41:20.222Z,19.70
2017-10-19T15:43:47.677Z,19.70
2017-10-19T15:46:15.135Z,19.80
2017-10-19T15:48:42.589Z,19.90
2017-10-19T15:51:13.774Z,19.80
2017-10-19T15:53:41.995Z,19.50
2017-10-19T15:56:09.451Z,19.50
2017-10-19T15:58:36.908Z,19.20
2017-10-19T16:01:04.363Z,18.90
2017-10-19T16:03:31.996Z,18.70
2017-10-19T16:05:59.452Z,18.30
2017-10-19T16:08:26.918Z,18.40
2017-10-19T16:10:54.379Z,18.10
2017-10-19T16:13:21.844Z,17.90
2017-10-19T16:15:49.324Z,18.10
2017-10-19T16:18:16.782Z,17.80
2017-10-19T16:20:44.248Z,17.80
2017-10-19T16:23:11.703Z,17.60
2017-10-19T16:25:39.169Z,17.40
2017-10-19T16:28:07.409Z,17.10
2017-10-19T16:30:34.874Z,17.00
2017-10-19T16:33:02.328Z,16.80
2017-10-19T16:35:29.952Z,16.50
2017-10-19T16:37:57.404Z,16.40
2017-10-19T16:40:24.880Z,16.20
2017-10-19T16:42:52.343Z,16.20
2017-10-19T16:45:19.819Z,16.10
2017-10-19T16:47:47.287Z,16.00
2017-10-19T16:50:14.744Z,16.00
2017-10-19T16:52:42.383Z,15.90
2017-10-19T16:55:09.835Z,15.80
2017-10-19T16:57:37.308Z,15.80
2017-10-19T17:00:04.772Z,15.80
2017-10-19T17:02:32.239Z,15.90
2017-10-19T17:04:59.682Z,15.90
2017-10-19T17:07:27.133Z,15.80
2017-10-19T17:09:54.602Z,15.80
2017-10-19T17:12:22.043Z,15.80
2017-10-19T17:14:49.509Z,15.70
2017-10-19T17:17:16.969Z,15.70
2017-10-19T17:19:44.589Z,15.70
2017-10-19T17:22:12.049Z,15.60
2017-10-19T17:24:39.492Z,15.60
2017-10-19T17:27:06.956Z,15.60
2017-10-19T17:29:34.411Z,15.40
2017-10-19T17:32:01.889Z,15.20
2017-10-19T17:34:29.329Z,14.80
2017-10-19T17:36:56.780Z,14.70
2017-10-19T17:39:24.246Z,14.60
2017-10-19T17:41:51.716Z,14.50
2017-10-19T17:44:19.169Z,14.50
2017-10-19T17:46:46.624Z,14.50
2017-10-19T17:49:14.084Z,14.50
2017-10-19T17:51:41.727Z,14.50
2017-10-19T17:54:09.204Z,14.30
2017-10-19T17:56:36.665Z,14.20
2017-10-19T17:59:04.136Z,14.10
2017-10-19T18:01:31.580Z,14.20
2017-10-19T18:03:59.208Z,14.20
2017-10-19T18:06:26.651Z,14.10
2017-10-19T18:08:54.106Z,13.90
2017-10-19T18:11:21.571Z,14.00
2017-10-19T18:13:49.002Z,14.00
2017-10-19T18:16:17.244Z,14.00
2017-10-19T18:18:44.785Z,13.90
2017-10-19T18:21:12.335Z,13.80
2017-10-19T18:23:39.857Z,13.80
2017-10-19T18:26:08.083Z,13.90
2017-10-19T18:28:35.536Z,13.90
2017-10-19T18:31:03.016Z,13.70
2017-10-19T18:33:30.467Z,13.70
2017-10-19T18:35:57.917Z,13.70
2017-10-19T18:38:25.366Z,13.60
2017-10-19T18:40:52.808Z,13.40
2017-10-19T18:43:20.260Z,13.50
2017-10-19T18:45:47.714Z,13.50
2017-10-19T18:48:15.159Z,13.40
2017-10-19T18:50:42.615Z,13.40
2017-10-19T18:53:10.081Z,13.30
2017-10-19T18:55:37.528Z,13.20
2017-10-19T18:58:04.984Z,13.10
2017-10-19T19:00:32.423Z,13.00
2017-10-19T19:03:00.030Z,13.00
2017-10-19T19:05:27.478Z,13.00
2017-10-19T19:07:54.927Z,12.90
2017-10-19T19:10:22.380Z,12.90
2017-10-19T19:12:49.926Z,12.80
2017-10-19T19:15:17.387Z,12.80
2017-10-19T19:17:44.837Z,12.70
2017-10-19T19:20:12.279Z,12.80
2017-10-19T19:22:39.719Z,12.80
2017-10-19T19:25:07.938Z,12.50
2017-10-19T19:27:35.384Z,12.50
2017-10-19T19:30:02.841Z,12.50
2017-10-19T19:32:30.296Z,12.50
2017-10-19T19:34:57.752Z,12.40
2017-10-19T19:37:25.371Z,12.40
2017-10-19T19:39:53.583Z,12.30
2017-10-19T19:42:21.203Z,12.30
2017-10-19T19:44:49.421Z,12.30
2017-10-19T19:47:16.881Z,12.30
2017-10-19T19:49:44.343Z,12.30
2017-10-19T19:52:11.788Z,12.40
2017-10-19T19:54:39.242Z,12.40
2017-10-19T19:57:06.747Z,12.40
2017-10-19T19:59:34.199Z,12.40
2017-10-19T20:02:01.642Z,12.50
2017-10-19T20:04:29.094Z,12.50
2017-10-19T20:06:56.545Z,12.50
2017-10-19T20:09:24.160Z,12.50
2017-10-19T20:11:51.611Z,12.50
2017-10-19T20:14:19.835Z,12.40
2017-10-19T20:16:47.288Z,12.40
2017-10-19T20:19:14.743Z,12.30
2017-10-19T20:21:42.203Z,12.40
2017-10-19T20:24:09.660Z,12.40
2017-10-19T20:26:37.284Z,12.40
2017-10-19T20:29:04.733Z,12.40
2017-10-19T20:31:32.188Z,12.30
2017-10-19T20:34:00.405Z,12.20
2017-10-19T20:36:27.843Z,12.20
2017-10-19T20:38:55.297Z,12.10
2017-10-19T20:41:22.739Z,12.20
2017-10-19T20:43:50.804Z,12.20
2017-10-19T20:46:18.281Z,12.00
2017-10-19T20:48:46.089Z,12.00
2017-10-19T20:51:14.892Z,11.60
2017-10-19T20:53:43.108Z,11.70
2017-10-19T20:56:10.559Z,11.60
2017-10-19T20:58:38.015Z,11.70
2017-10-19T21:01:05.478Z,11.70
2017-10-19T21:03:32.936Z,11.80
2017-10-19T21:06:00.388Z,11.80
2017-10-19T21:08:27.851Z,11.70
2017-10-19T21:10:55.300Z,11.70
2017-10-19T21:13:22.756Z,11.50
2017-10-19T21:15:50.215Z,11.40
2017-10-19T21:18:17.668Z,11.40
2017-10-19T21:20:45.111Z,11.40
2017-10-19T21:23:12.588Z,11.50
2017-10-19T21:25:40.035Z,11.40
2017-10-19T21:28:07.493Z,11.40
2017-10-19T21:30:35.000Z,11.40
2017-10-19T21:33:02.443Z,11.60
2017-10-19T21:35:29.895Z,11.50
2017-10-19T21:37:57.344Z,11.50
2017-10-19T21:40:24.787Z,11.60
2017-10-19T21:42:52.248Z,11.50
2017-10-19T21:45:19.708Z,11.40
2017-10-19T21:47:47.163Z,11.40
2017-10-19T21:50:14.607Z,11.40
2017-10-19T21:52:42.055Z,11.30
2017-10-19T21:55:09.509Z,11.40
2017-10-19T21:57:36.953Z,11.40
2017-10-19T22:00:04.415Z,11.40
2017-10-19T22:02:31.864Z,11.50
2017-10-19T22:04:59.319Z,11.40
2017-10-19T22:07:26.763Z,11.30
2017-10-19T22:09:54.975Z,11.20
2017-10-19T22:12:22.419Z,11.20
2017-10-19T22:14:49.878Z,11.30
2017-10-19T22:17:17.347Z,11.30
2017-10-19T22:19:44.799Z,11.30
2017-10-19T22:22:12.264Z,11.30
2017-10-19T22:24:39.704Z,11.20
2017-10-19T22:27:07.170Z,11.20
2017-10-19T22:29:34.617Z,11.10
2017-10-19T22:32:02.071Z,11.10
2017-10-19T22:34:29.525Z,11.00
2017-10-19T22:36:57.032Z,11.00
2017-10-19T22:39:24.487Z,11.00
2017-10-19T22:41:51.932Z,11.00
2017-10-19T22:44:19.388Z,11.10
2017-10-19T22:46:46.831Z,11.10
2017-10-19T22:49:14.302Z,11.10
2017-10-19T22:51:41.756Z,11.10
2017-10-19T22:54:09.210Z,11.10
2017-10-19T22:56:36.660Z,11.00
2017-10-19T22:59:04.136Z,11.00
2017-10-19T23:01:31.579Z,11.00
2017-10-19T23:03:59.040Z,11.10
2017-10-19T23:06:26.491Z,11.10
2017-10-19T23:08:53.935Z,11.10
2017-10-19T23:11:21.398Z,11.10
2017-10-19T23:13:48.851Z,11.00
2017-10-19T23:16:16.298Z,11.00
2017-10-19T23:18:43.758Z,10.90
2017-10-19T23:21:11.203Z,10.80
2017-10-19T23:23:38.655Z,10.70
2017-10-19T23:26:06.116Z,10.70
2017-10-19T23:28:33.583Z,10.60
2017-10-19T23:31:01.031Z,10.60
2017-10-19T23:33:28.471Z,10.50
2017-10-19T23:35:55.928Z,10.60
2017-10-19T23:38:23.367Z,10.40
2017-10-19T23:40:50.819Z,10.40
2017-10-19T23:43:18.256Z,10.40
2017-10-19T23:45:46.479Z,10.50
2017-10-19T23:48:13.928Z,10.50
2017-10-19T23:50:41.386Z,10.40
2017-10-19T23:53:08.839Z,10.40
2017-10-19T23:55:36.295Z,10.40
2017-10-19T23:58:03.735Z,10.40
